sensor_id;sensor_type;location;lat;lon;timestamp;temperature;humidity
39045;DHT22;52192;52.002;5.956;2023-09-30T00:01:22;14.70;76.90
39045;DHT22;52192;52.002;5.956;2023-09-30T00:03:47;14.70;76.90
39045;DHT22;52192;52.002;5.956;2023-09-30T00:06:13;14.70;76.90
39045;DHT22;52192;52.002;5.956;2023-09-30T00:08:39;14.70;76.80
39045;DHT22;52192;52.002;5.956;2023-09-30T00:11:07;14.70;76.80
39045;DHT22;52192;52.002;5.956;2023-09-30T00:13:32;14.70;77.00
39045;DHT22;52192;52.002;5.956;2023-09-30T00:15:58;14.70;77.10
39045;DHT22;52192;52.002;5.956;2023-09-30T00:18:24;14.70;77.20
39045;DHT22;52192;52.002;5.956;2023-09-30T00:20:50;14.70;77.30
39045;DHT22;52192;52.002;5.956;2023-09-30T00:23:16;14.70;77.30
39045;DHT22;52192;52.002;5.956;2023-09-30T00:25:41;14.70;77.50
39045;DHT22;52192;52.002;5.956;2023-09-30T00:28:07;14.70;77.60
39045;DHT22;52192;52.002;5.956;2023-09-30T00:30:33;14.70;77.70
39045;DHT22;52192;52.002;5.956;2023-09-30T00:32:59;14.70;77.70
39045;DHT22;52192;52.002;5.956;2023-09-30T00:35:24;14.70;77.70
39045;DHT22;52192;52.002;5.956;2023-09-30T00:37:51;14.70;77.80
39045;DHT22;52192;52.002;5.956;2023-09-30T00:40:17;14.70;77.60
39045;DHT22;52192;52.002;5.956;2023-09-30T00:42:42;14.70;77.60
39045;DHT22;52192;52.002;5.956;2023-09-30T00:45:08;14.70;77.60
39045;DHT22;52192;52.002;5.956;2023-09-30T00:47:36;14.70;77.60
39045;DHT22;52192;52.002;5.956;2023-09-30T00:50:03;14.70;77.80
39045;DHT22;52192;52.002;5.956;2023-09-30T00:52:32;14.60;77.70
39045;DHT22;52192;52.002;5.956;2023-09-30T00:54:59;14.60;77.70
39045;DHT22;52192;52.002;5.956;2023-09-30T00:57:25;14.60;77.80
39045;DHT22;52192;52.002;5.956;2023-09-30T00:59:51;14.60;77.80
39045;DHT22;52192;52.002;5.956;2023-09-30T01:02:21;14.60;77.80
39045;DHT22;52192;52.002;5.956;2023-09-30T01:04:48;14.60;77.70
39045;DHT22;52192;52.002;5.956;2023-09-30T01:07:14;14.50;77.70
39045;DHT22;52192;52.002;5.956;2023-09-30T01:09:39;14.50;77.70
39045;DHT22;52192;52.002;5.956;2023-09-30T01:12:05;14.60;77.80
39045;DHT22;52192;52.002;5.956;2023-09-30T01:14:33;14.50;77.80
39045;DHT22;52192;52.002;5.956;2023-09-30T01:17:08;14.50;77.80
39045;DHT22;52192;52.002;5.956;2023-09-30T01:19:41;14.50;77.80
39045;DHT22;52192;52.002;5.956;2023-09-30T01:22:08;14.40;77.80
39045;DHT22;52192;52.002;5.956;2023-09-30T01:24:42;14.40;77.90
39045;DHT22;52192;52.002;5.956;2023-09-30T01:27:08;14.40;77.80
39045;DHT22;52192;52.002;5.956;2023-09-30T01:29:34;14.40;77.90
39045;DHT22;52192;52.002;5.956;2023-09-30T01:32:00;14.40;77.90
39045;DHT22;52192;52.002;5.956;2023-09-30T01:34:26;14.30;77.90
39045;DHT22;52192;52.002;5.956;2023-09-30T01:36:53;14.30;77.90
39045;DHT22;52192;52.002;5.956;2023-09-30T01:39:19;14.20;78.00
39045;DHT22;52192;52.002;5.956;2023-09-30T01:41:44;14.20;78.00
39045;DHT22;52192;52.002;5.956;2023-09-30T01:44:10;14.20;78.00
39045;DHT22;52192;52.002;5.956;2023-09-30T01:46:36;14.20;77.90
39045;DHT22;52192;52.002;5.956;2023-09-30T01:49:02;14.20;77.70
39045;DHT22;52192;52.002;5.956;2023-09-30T01:51:29;14.20;77.80
39045;DHT22;52192;52.002;5.956;2023-09-30T01:53:55;14.20;77.90
39045;DHT22;52192;52.002;5.956;2023-09-30T01:56:21;14.20;77.80
39045;DHT22;52192;52.002;5.956;2023-09-30T01:58:47;14.10;77.80
39045;DHT22;52192;52.002;5.956;2023-09-30T02:01:12;14.10;77.80
39045;DHT22;52192;52.002;5.956;2023-09-30T02:03:38;14.10;77.90
39045;DHT22;52192;52.002;5.956;2023-09-30T02:06:04;14.10;77.90
39045;DHT22;52192;52.002;5.956;2023-09-30T02:08:30;14.10;77.90
39045;DHT22;52192;52.002;5.956;2023-09-30T02:10:56;14.00;77.90
39045;DHT22;52192;52.002;5.956;2023-09-30T02:13:22;14.00;77.90
39045;DHT22;52192;52.002;5.956;2023-09-30T02:15:47;14.00;78.10
39045;DHT22;52192;52.002;5.956;2023-09-30T02:18:13;14.00;78.00
39045;DHT22;52192;52.002;5.956;2023-09-30T02:20:40;14.00;78.10
39045;DHT22;52192;52.002;5.956;2023-09-30T02:23:09;14.00;78.10
39045;DHT22;52192;52.002;5.956;2023-09-30T02:25:39;14.00;78.00
39045;DHT22;52192;52.002;5.956;2023-09-30T02:28:08;13.90;78.00
39045;DHT22;52192;52.002;5.956;2023-09-30T02:30:34;14.00;78.20
39045;DHT22;52192;52.002;5.956;2023-09-30T02:33:00;14.00;78.10
39045;DHT22;52192;52.002;5.956;2023-09-30T02:35:26;14.00;78.00
39045;DHT22;52192;52.002;5.956;2023-09-30T02:37:52;14.00;78.00
39045;DHT22;52192;52.002;5.956;2023-09-30T02:40:18;14.00;78.00
39045;DHT22;52192;52.002;5.956;2023-09-30T02:42:45;14.00;78.10
39045;DHT22;52192;52.002;5.956;2023-09-30T02:45:12;14.00;78.10
39045;DHT22;52192;52.002;5.956;2023-09-30T02:47:38;14.00;78.10
39045;DHT22;52192;52.002;5.956;2023-09-30T02:50:06;14.00;78.10
39045;DHT22;52192;52.002;5.956;2023-09-30T02:52:41;14.00;78.20
39045;DHT22;52192;52.002;5.956;2023-09-30T02:55:11;14.00;78.30
39045;DHT22;52192;52.002;5.956;2023-09-30T02:57:37;14.00;78.50
39045;DHT22;52192;52.002;5.956;2023-09-30T03:00:04;14.00;78.50
39045;DHT22;52192;52.002;5.956;2023-09-30T03:02:55;14.00;78.50
39045;DHT22;52192;52.002;5.956;2023-09-30T03:05:22;14.10;78.60
39045;DHT22;52192;52.002;5.956;2023-09-30T03:07:48;14.10;78.50
39045;DHT22;52192;52.002;5.956;2023-09-30T03:10:16;14.10;78.50
39045;DHT22;52192;52.002;5.956;2023-09-30T03:12:55;14.10;78.60
39045;DHT22;52192;52.002;5.956;2023-09-30T03:15:22;14.10;78.80
39045;DHT22;52192;52.002;5.956;2023-09-30T03:17:48;14.10;78.70
39045;DHT22;52192;52.002;5.956;2023-09-30T03:20:14;14.10;78.80
39045;DHT22;52192;52.002;5.956;2023-09-30T03:22:44;14.20;78.90
39045;DHT22;52192;52.002;5.956;2023-09-30T03:25:14;14.20;78.80
39045;DHT22;52192;52.002;5.956;2023-09-30T03:27:41;14.20;79.00
39045;DHT22;52192;52.002;5.956;2023-09-30T03:30:08;14.20;78.90
39045;DHT22;52192;52.002;5.956;2023-09-30T03:32:34;14.20;78.80
39045;DHT22;52192;52.002;5.956;2023-09-30T03:35:02;14.20;78.90
39045;DHT22;52192;52.002;5.956;2023-09-30T03:37:28;14.20;79.10
39045;DHT22;52192;52.002;5.956;2023-09-30T03:39:57;14.20;79.10
39045;DHT22;52192;52.002;5.956;2023-09-30T03:42:23;14.20;79.10
39045;DHT22;52192;52.002;5.956;2023-09-30T03:44:49;14.20;79.10
39045;DHT22;52192;52.002;5.956;2023-09-30T03:47:15;14.20;79.10
39045;DHT22;52192;52.002;5.956;2023-09-30T03:49:42;14.20;79.10
39045;DHT22;52192;52.002;5.956;2023-09-30T03:52:09;14.20;79.80
39045;DHT22;52192;52.002;5.956;2023-09-30T03:54:35;14.20;79.30
39045;DHT22;52192;52.002;5.956;2023-09-30T03:57:01;14.20;79.40
39045;DHT22;52192;52.002;5.956;2023-09-30T03:59:27;14.20;79.30
39045;DHT22;52192;52.002;5.956;2023-09-30T04:01:53;14.20;79.30
39045;DHT22;52192;52.002;5.956;2023-09-30T04:04:24;14.20;79.30
39045;DHT22;52192;52.002;5.956;2023-09-30T04:06:51;14.20;79.40
39045;DHT22;52192;52.002;5.956;2023-09-30T04:09:17;14.20;79.40
39045;DHT22;52192;52.002;5.956;2023-09-30T04:11:43;14.10;79.50
39045;DHT22;52192;52.002;5.956;2023-09-30T04:14:09;14.10;79.50
39045;DHT22;52192;52.002;5.956;2023-09-30T04:16:35;14.10;79.60
39045;DHT22;52192;52.002;5.956;2023-09-30T04:19:03;14.10;79.50
39045;DHT22;52192;52.002;5.956;2023-09-30T04:21:30;14.10;79.60
39045;DHT22;52192;52.002;5.956;2023-09-30T04:23:59;14.20;79.70
39045;DHT22;52192;52.002;5.956;2023-09-30T04:26:25;14.20;79.70
39045;DHT22;52192;52.002;5.956;2023-09-30T04:28:51;14.20;79.70
39045;DHT22;52192;52.002;5.956;2023-09-30T04:31:18;14.20;79.70
39045;DHT22;52192;52.002;5.956;2023-09-30T04:33:44;14.20;79.70
39045;DHT22;52192;52.002;5.956;2023-09-30T04:36:10;14.20;79.80
39045;DHT22;52192;52.002;5.956;2023-09-30T04:38:36;14.10;79.80
39045;DHT22;52192;52.002;5.956;2023-09-30T04:41:05;14.20;79.90
39045;DHT22;52192;52.002;5.956;2023-09-30T04:43:33;14.20;79.90
39045;DHT22;52192;52.002;5.956;2023-09-30T04:45:59;14.10;79.90
39045;DHT22;52192;52.002;5.956;2023-09-30T04:48:24;14.10;80.00
39045;DHT22;52192;52.002;5.956;2023-09-30T04:50:50;14.10;79.90
39045;DHT22;52192;52.002;5.956;2023-09-30T04:53:17;14.20;80.00
39045;DHT22;52192;52.002;5.956;2023-09-30T04:55:44;14.10;80.00
39045;DHT22;52192;52.002;5.956;2023-09-30T04:58:10;14.10;80.00
39045;DHT22;52192;52.002;5.956;2023-09-30T05:00:36;14.20;80.00
39045;DHT22;52192;52.002;5.956;2023-09-30T05:03:02;14.20;80.10
39045;DHT22;52192;52.002;5.956;2023-09-30T05:05:27;14.20;80.00
39045;DHT22;52192;52.002;5.956;2023-09-30T05:07:54;14.20;80.10
39045;DHT22;52192;52.002;5.956;2023-09-30T05:10:20;14.10;80.10
39045;DHT22;52192;52.002;5.956;2023-09-30T05:12:45;14.10;80.10
39045;DHT22;52192;52.002;5.956;2023-09-30T05:15:12;14.10;80.20
39045;DHT22;52192;52.002;5.956;2023-09-30T05:17:39;14.10;80.20
39045;DHT22;52192;52.002;5.956;2023-09-30T05:20:05;14.10;80.30
39045;DHT22;52192;52.002;5.956;2023-09-30T05:22:33;14.10;80.40
39045;DHT22;52192;52.002;5.956;2023-09-30T05:24:59;14.10;80.40
39045;DHT22;52192;52.002;5.956;2023-09-30T05:27:26;14.20;80.40
39045;DHT22;52192;52.002;5.956;2023-09-30T05:29:52;14.20;80.40
39045;DHT22;52192;52.002;5.956;2023-09-30T05:32:18;14.20;80.40
39045;DHT22;52192;52.002;5.956;2023-09-30T05:34:44;14.20;81.00
39045;DHT22;52192;52.002;5.956;2023-09-30T05:37:10;14.20;80.30
39045;DHT22;52192;52.002;5.956;2023-09-30T05:39:37;14.20;80.40
39045;DHT22;52192;52.002;5.956;2023-09-30T05:42:03;14.10;80.40
39045;DHT22;52192;52.002;5.956;2023-09-30T05:44:29;14.10;80.40
39045;DHT22;52192;52.002;5.956;2023-09-30T05:46:55;14.10;80.50
39045;DHT22;52192;52.002;5.956;2023-09-30T05:49:21;14.10;80.60
39045;DHT22;52192;52.002;5.956;2023-09-30T05:51:47;14.10;80.60
39045;DHT22;52192;52.002;5.956;2023-09-30T05:54:12;14.10;80.60
39045;DHT22;52192;52.002;5.956;2023-09-30T05:56:39;14.10;80.70
39045;DHT22;52192;52.002;5.956;2023-09-30T05:59:05;14.10;80.70
39045;DHT22;52192;52.002;5.956;2023-09-30T06:01:32;14.10;80.70
39045;DHT22;52192;52.002;5.956;2023-09-30T06:03:59;14.10;80.80
39045;DHT22;52192;52.002;5.956;2023-09-30T06:06:25;14.10;80.80
39045;DHT22;52192;52.002;5.956;2023-09-30T06:08:53;14.10;80.80
39045;DHT22;52192;52.002;5.956;2023-09-30T06:11:22;14.10;80.80
39045;DHT22;52192;52.002;5.956;2023-09-30T06:13:54;14.20;80.80
39045;DHT22;52192;52.002;5.956;2023-09-30T06:16:20;14.20;80.80
39045;DHT22;52192;52.002;5.956;2023-09-30T06:18:46;14.20;80.90
39045;DHT22;52192;52.002;5.956;2023-09-30T06:21:13;14.20;80.90
39045;DHT22;52192;52.002;5.956;2023-09-30T06:23:40;14.20;80.90
39045;DHT22;52192;52.002;5.956;2023-09-30T06:26:06;14.20;81.00
39045;DHT22;52192;52.002;5.956;2023-09-30T06:28:32;14.20;81.10
39045;DHT22;52192;52.002;5.956;2023-09-30T06:30:59;14.20;81.10
39045;DHT22;52192;52.002;5.956;2023-09-30T06:33:25;14.30;81.10
39045;DHT22;52192;52.002;5.956;2023-09-30T06:35:54;14.30;81.20
39045;DHT22;52192;52.002;5.956;2023-09-30T06:38:21;14.40;81.20
39045;DHT22;52192;52.002;5.956;2023-09-30T06:40:47;14.40;81.10
39045;DHT22;52192;52.002;5.956;2023-09-30T06:43:16;14.50;81.20
39045;DHT22;52192;52.002;5.956;2023-09-30T06:45:42;14.50;81.30
39045;DHT22;52192;52.002;5.956;2023-09-30T06:48:09;14.50;81.40
39045;DHT22;52192;52.002;5.956;2023-09-30T06:50:39;14.50;81.50
39045;DHT22;52192;52.002;5.956;2023-09-30T06:53:05;14.60;81.60
39045;DHT22;52192;52.002;5.956;2023-09-30T06:55:31;14.60;81.60
39045;DHT22;52192;52.002;5.956;2023-09-30T06:57:57;14.70;81.60
39045;DHT22;52192;52.002;5.956;2023-09-30T07:00:23;14.70;81.60
39045;DHT22;52192;52.002;5.956;2023-09-30T07:02:48;14.80;81.50
39045;DHT22;52192;52.002;5.956;2023-09-30T07:05:15;14.80;81.50
39045;DHT22;52192;52.002;5.956;2023-09-30T07:07:41;14.90;81.50
39045;DHT22;52192;52.002;5.956;2023-09-30T07:10:10;14.90;81.40
39045;DHT22;52192;52.002;5.956;2023-09-30T07:12:37;15.00;81.50
39045;DHT22;52192;52.002;5.956;2023-09-30T07:15:03;15.10;81.60
39045;DHT22;52192;52.002;5.956;2023-09-30T07:17:30;15.10;82.10
39045;DHT22;52192;52.002;5.956;2023-09-30T07:19:56;15.20;82.30
39045;DHT22;52192;52.002;5.956;2023-09-30T07:22:22;15.30;82.40
39045;DHT22;52192;52.002;5.956;2023-09-30T07:24:48;15.30;82.60
39045;DHT22;52192;52.002;5.956;2023-09-30T07:27:13;15.40;83.00
39045;DHT22;52192;52.002;5.956;2023-09-30T07:29:39;15.40;83.10
39045;DHT22;52192;52.002;5.956;2023-09-30T07:32:06;15.50;83.30
39045;DHT22;52192;52.002;5.956;2023-09-30T07:34:32;15.50;83.20
39045;DHT22;52192;52.002;5.956;2023-09-30T07:36:58;15.60;83.40
39045;DHT22;52192;52.002;5.956;2023-09-30T07:39:24;15.60;83.30
39045;DHT22;52192;52.002;5.956;2023-09-30T07:41:49;15.60;83.40
39045;DHT22;52192;52.002;5.956;2023-09-30T07:44:15;15.60;83.80
39045;DHT22;52192;52.002;5.956;2023-09-30T07:46:41;15.70;84.10
39045;DHT22;52192;52.002;5.956;2023-09-30T07:49:08;15.70;84.00
39045;DHT22;52192;52.002;5.956;2023-09-30T07:51:34;15.80;83.80
39045;DHT22;52192;52.002;5.956;2023-09-30T07:54:01;15.90;83.80
39045;DHT22;52192;52.002;5.956;2023-09-30T07:56:26;15.90;83.60
39045;DHT22;52192;52.002;5.956;2023-09-30T07:58:52;16.10;83.40
39045;DHT22;52192;52.002;5.956;2023-09-30T08:01:18;16.20;83.20
39045;DHT22;52192;52.002;5.956;2023-09-30T08:03:45;16.20;83.40
39045;DHT22;52192;52.002;5.956;2023-09-30T08:06:10;16.30;83.50
39045;DHT22;52192;52.002;5.956;2023-09-30T08:08:36;16.20;83.70
39045;DHT22;52192;52.002;5.956;2023-09-30T08:11:02;16.30;83.70
39045;DHT22;52192;52.002;5.956;2023-09-30T08:13:28;16.40;83.50
39045;DHT22;52192;52.002;5.956;2023-09-30T08:15:55;16.50;83.30
39045;DHT22;52192;52.002;5.956;2023-09-30T08:18:21;16.60;83.80
39045;DHT22;52192;52.002;5.956;2023-09-30T08:20:47;16.60;83.00
39045;DHT22;52192;52.002;5.956;2023-09-30T08:23:12;16.60;82.90
39045;DHT22;52192;52.002;5.956;2023-09-30T08:25:38;16.70;82.90
39045;DHT22;52192;52.002;5.956;2023-09-30T08:28:05;16.70;82.80
39045;DHT22;52192;52.002;5.956;2023-09-30T08:30:32;16.80;82.70
39045;DHT22;52192;52.002;5.956;2023-09-30T08:32:58;16.90;82.70
39045;DHT22;52192;52.002;5.956;2023-09-30T08:35:25;16.90;82.70
39045;DHT22;52192;52.002;5.956;2023-09-30T08:37:50;17.00;82.70
39045;DHT22;52192;52.002;5.956;2023-09-30T08:40:22;17.10;82.60
39045;DHT22;52192;52.002;5.956;2023-09-30T08:42:52;17.10;82.30
39045;DHT22;52192;52.002;5.956;2023-09-30T08:45:18;17.20;82.20
39045;DHT22;52192;52.002;5.956;2023-09-30T08:47:45;17.30;82.00
39045;DHT22;52192;52.002;5.956;2023-09-30T08:50:16;17.40;81.90
39045;DHT22;52192;52.002;5.956;2023-09-30T08:52:43;17.50;81.60
39045;DHT22;52192;52.002;5.956;2023-09-30T08:55:12;17.60;81.50
39045;DHT22;52192;52.002;5.956;2023-09-30T08:57:41;17.70;81.20
39045;DHT22;52192;52.002;5.956;2023-09-30T09:00:11;17.90;81.10
39045;DHT22;52192;52.002;5.956;2023-09-30T09:02:41;18.00;80.70
39045;DHT22;52192;52.002;5.956;2023-09-30T09:05:07;18.10;80.30
39045;DHT22;52192;52.002;5.956;2023-09-30T09:07:34;18.20;80.20
39045;DHT22;52192;52.002;5.956;2023-09-30T09:12:31;18.60;79.50
39045;DHT22;52192;52.002;5.956;2023-09-30T09:14:56;18.60;78.80
39045;DHT22;52192;52.002;5.956;2023-09-30T09:17:22;18.70;78.80
39045;DHT22;52192;52.002;5.956;2023-09-30T09:19:59;18.80;78.40
39045;DHT22;52192;52.002;5.956;2023-09-30T09:22:39;18.90;78.10
39045;DHT22;52192;52.002;5.956;2023-09-30T09:25:05;19.00;78.20
39045;DHT22;52192;52.002;5.956;2023-09-30T09:27:34;19.10;77.90
39045;DHT22;52192;52.002;5.956;2023-09-30T09:32:54;19.40;77.40
39045;DHT22;52192;52.002;5.956;2023-09-30T09:35:21;19.50;76.40
39045;DHT22;52192;52.002;5.956;2023-09-30T09:37:58;19.50;75.70
39045;DHT22;52192;52.002;5.956;2023-09-30T09:40:26;19.60;75.70
39045;DHT22;52192;52.002;5.956;2023-09-30T09:42:53;19.60;75.90
39045;DHT22;52192;52.002;5.956;2023-09-30T09:45:25;19.80;75.30
39045;DHT22;52192;52.002;5.956;2023-09-30T09:47:53;20.00;75.20
39045;DHT22;52192;52.002;5.956;2023-09-30T09:50:20;20.10;75.20
39045;DHT22;52192;52.002;5.956;2023-09-30T09:52:52;20.30;74.70
39045;DHT22;52192;52.002;5.956;2023-09-30T09:55:19;20.40;73.80
39045;DHT22;52192;52.002;5.956;2023-09-30T09:57:46;20.30;73.30
39045;DHT22;52192;52.002;5.956;2023-09-30T10:00:15;20.50;73.00
39045;DHT22;52192;52.002;5.956;2023-09-30T10:02:41;20.60;73.20
39045;DHT22;52192;52.002;5.956;2023-09-30T10:05:07;20.70;72.00
39045;DHT22;52192;52.002;5.956;2023-09-30T10:07:37;20.70;72.10
39045;DHT22;52192;52.002;5.956;2023-09-30T10:10:07;20.80;72.40
39045;DHT22;52192;52.002;5.956;2023-09-30T10:12:40;21.00;72.00
39045;DHT22;52192;52.002;5.956;2023-09-30T10:17:57;21.20;70.40
39045;DHT22;52192;52.002;5.956;2023-09-30T10:20:28;21.40;70.90
39045;DHT22;52192;52.002;5.956;2023-09-30T10:25:48;21.90;70.30
39045;DHT22;52192;52.002;5.956;2023-09-30T10:28:34;22.10;69.70
39045;DHT22;52192;52.002;5.956;2023-09-30T10:36:30;22.40;68.60
39045;DHT22;52192;52.002;5.956;2023-09-30T10:38:58;22.50;67.50
39045;DHT22;52192;52.002;5.956;2023-09-30T10:46:52;22.40;67.00
39045;DHT22;52192;52.002;5.956;2023-09-30T10:51:56;22.20;65.60
39045;DHT22;52192;52.002;5.956;2023-09-30T10:54:27;21.90;66.60
39045;DHT22;52192;52.002;5.956;2023-09-30T10:56:53;21.60;66.80
39045;DHT22;52192;52.002;5.956;2023-09-30T10:59:23;21.30;67.70
39045;DHT22;52192;52.002;5.956;2023-09-30T11:01:52;21.10;68.00
39045;DHT22;52192;52.002;5.956;2023-09-30T11:04:19;21.00;68.60
39045;DHT22;52192;52.002;5.956;2023-09-30T11:06:46;20.90;69.10
39045;DHT22;52192;52.002;5.956;2023-09-30T11:09:19;20.90;69.60
39045;DHT22;52192;52.002;5.956;2023-09-30T11:11:47;21.00;70.40
39045;DHT22;52192;52.002;5.956;2023-09-30T11:14:25;21.40;69.20
39045;DHT22;52192;52.002;5.956;2023-09-30T11:16:52;21.90;68.50
39045;DHT22;52192;52.002;5.956;2023-09-30T11:19:19;22.20;66.80
39045;DHT22;52192;52.002;5.956;2023-09-30T11:21:50;22.30;66.80
39045;DHT22;52192;52.002;5.956;2023-09-30T11:24:17;22.10;65.60
39045;DHT22;52192;52.002;5.956;2023-09-30T11:26:43;21.90;66.30
39045;DHT22;52192;52.002;5.956;2023-09-30T11:29:11;21.70;65.40
39045;DHT22;52192;52.002;5.956;2023-09-30T11:31:38;21.50;65.10
39045;DHT22;52192;52.002;5.956;2023-09-30T11:34:04;21.30;66.20
39045;DHT22;52192;52.002;5.956;2023-09-30T11:36:37;21.20;66.00
39045;DHT22;52192;52.002;5.956;2023-09-30T11:39:03;21.10;65.90
39045;DHT22;52192;52.002;5.956;2023-09-30T11:41:38;21.10;66.30
39045;DHT22;52192;52.002;5.956;2023-09-30T11:44:11;21.00;65.60
39045;DHT22;52192;52.002;5.956;2023-09-30T11:46:51;21.00;66.00
39045;DHT22;52192;52.002;5.956;2023-09-30T11:49:34;21.10;66.50
39045;DHT22;52192;52.002;5.956;2023-09-30T11:52:19;21.20;66.30
39045;DHT22;52192;52.002;5.956;2023-09-30T11:54:50;21.30;66.30
39045;DHT22;52192;52.002;5.956;2023-09-30T11:57:16;21.80;65.00
39045;DHT22;52192;52.002;5.956;2023-09-30T11:59:43;22.10;63.10
39045;DHT22;52192;52.002;5.956;2023-09-30T12:02:14;22.50;61.40
39045;DHT22;52192;52.002;5.956;2023-09-30T12:04:42;22.90;59.60
39045;DHT22;52192;52.002;5.956;2023-09-30T12:07:08;23.10;58.30
39045;DHT22;52192;52.002;5.956;2023-09-30T12:09:33;23.30;59.10
39045;DHT22;52192;52.002;5.956;2023-09-30T12:12:03;23.70;57.60
39045;DHT22;52192;52.002;5.956;2023-09-30T12:14:29;23.80;57.40
39045;DHT22;52192;52.002;5.956;2023-09-30T12:16:57;23.80;57.70
39045;DHT22;52192;52.002;5.956;2023-09-30T12:19:23;23.80;56.20
39045;DHT22;52192;52.002;5.956;2023-09-30T12:21:50;23.60;56.60
39045;DHT22;52192;52.002;5.956;2023-09-30T12:24:16;23.70;56.40
39045;DHT22;52192;52.002;5.956;2023-09-30T12:26:46;23.80;56.70
39045;DHT22;52192;52.002;5.956;2023-09-30T12:29:16;23.90;57.00
39045;DHT22;52192;52.002;5.956;2023-09-30T12:31:43;23.80;55.10
39045;DHT22;52192;52.002;5.956;2023-09-30T12:34:09;23.70;56.00
39045;DHT22;52192;52.002;5.956;2023-09-30T12:36:35;23.40;56.30
39045;DHT22;52192;52.002;5.956;2023-09-30T12:39:01;23.30;56.80
39045;DHT22;52192;52.002;5.956;2023-09-30T12:41:26;23.20;56.00
39045;DHT22;52192;52.002;5.956;2023-09-30T12:43:52;23.00;56.00
39045;DHT22;52192;52.002;5.956;2023-09-30T12:46:18;22.80;56.10
39045;DHT22;52192;52.002;5.956;2023-09-30T12:48:45;22.70;56.90
39045;DHT22;52192;52.002;5.956;2023-09-30T12:51:11;22.60;57.40
39045;DHT22;52192;52.002;5.956;2023-09-30T12:53:37;22.40;56.00
39045;DHT22;52192;52.002;5.956;2023-09-30T12:56:03;22.20;56.30
39045;DHT22;52192;52.002;5.956;2023-09-30T12:58:28;22.20;57.20
39045;DHT22;52192;52.002;5.956;2023-09-30T13:00:57;22.30;57.50
39045;DHT22;52192;52.002;5.956;2023-09-30T13:03:23;22.40;57.30
39045;DHT22;52192;52.002;5.956;2023-09-30T13:05:49;22.50;57.40
39045;DHT22;52192;52.002;5.956;2023-09-30T13:08:16;22.60;57.30
39045;DHT22;52192;52.002;5.956;2023-09-30T13:10:41;22.70;57.00
39045;DHT22;52192;52.002;5.956;2023-09-30T13:13:07;22.70;56.60
39045;DHT22;52192;52.002;5.956;2023-09-30T13:15:33;22.80;56.80
39045;DHT22;52192;52.002;5.956;2023-09-30T13:17:58;22.90;56.30
39045;DHT22;52192;52.002;5.956;2023-09-30T13:20:24;22.90;55.40
39045;DHT22;52192;52.002;5.956;2023-09-30T13:22:50;23.10;55.70
39045;DHT22;52192;52.002;5.956;2023-09-30T13:25:16;23.20;54.80
39045;DHT22;52192;52.002;5.956;2023-09-30T13:27:42;23.40;55.10
39045;DHT22;52192;52.002;5.956;2023-09-30T13:30:08;23.60;54.50
39045;DHT22;52192;52.002;5.956;2023-09-30T13:32:35;23.70;54.20
39045;DHT22;52192;52.002;5.956;2023-09-30T13:35:04;23.70;53.50
39045;DHT22;52192;52.002;5.956;2023-09-30T13:37:31;23.90;53.00
39045;DHT22;52192;52.002;5.956;2023-09-30T13:40:02;24.10;53.30
39045;DHT22;52192;52.002;5.956;2023-09-30T13:42:30;24.60;52.30
39045;DHT22;52192;52.002;5.956;2023-09-30T13:44:56;25.40;51.00
39045;DHT22;52192;52.002;5.956;2023-09-30T13:47:27;26.40;50.10
39045;DHT22;52192;52.002;5.956;2023-09-30T13:49:53;27.40;47.90
39045;DHT22;52192;52.002;5.956;2023-09-30T13:52:18;28.30;47.50
39045;DHT22;52192;52.002;5.956;2023-09-30T13:54:44;29.10;45.30
39045;DHT22;52192;52.002;5.956;2023-09-30T13:57:10;29.70;45.00
39045;DHT22;52192;52.002;5.956;2023-09-30T13:59:36;30.30;44.80
39045;DHT22;52192;52.002;5.956;2023-09-30T14:02:02;30.60;42.70
39045;DHT22;52192;52.002;5.956;2023-09-30T14:04:31;30.70;42.50
39045;DHT22;52192;52.002;5.956;2023-09-30T14:07:03;31.00;42.30
39045;DHT22;52192;52.002;5.956;2023-09-30T14:09:31;31.10;41.90
39045;DHT22;52192;52.002;5.956;2023-09-30T14:11:57;31.30;41.50
39045;DHT22;52192;52.002;5.956;2023-09-30T14:14:24;31.50;40.40
39045;DHT22;52192;52.002;5.956;2023-09-30T14:16:50;31.00;41.30
39045;DHT22;52192;52.002;5.956;2023-09-30T14:19:16;30.90;41.60
39045;DHT22;52192;52.002;5.956;2023-09-30T14:21:41;31.20;40.70
39045;DHT22;52192;52.002;5.956;2023-09-30T14:24:07;31.20;40.30
39045;DHT22;52192;52.002;5.956;2023-09-30T14:26:33;31.10;41.10
39045;DHT22;52192;52.002;5.956;2023-09-30T14:28:59;31.20;40.70
39045;DHT22;52192;52.002;5.956;2023-09-30T14:31:25;31.30;41.20
39045;DHT22;52192;52.002;5.956;2023-09-30T14:33:51;31.00;41.10
39045;DHT22;52192;52.002;5.956;2023-09-30T14:36:17;30.50;41.60
39045;DHT22;52192;52.002;5.956;2023-09-30T14:38:44;30.30;41.90
39045;DHT22;52192;52.002;5.956;2023-09-30T14:41:12;30.10;41.10
39045;DHT22;52192;52.002;5.956;2023-09-30T14:43:39;30.20;42.20
39045;DHT22;52192;52.002;5.956;2023-09-30T14:46:04;30.50;41.40
39045;DHT22;52192;52.002;5.956;2023-09-30T14:48:30;30.80;40.80
39045;DHT22;52192;52.002;5.956;2023-09-30T14:50:56;30.90;40.60
39045;DHT22;52192;52.002;5.956;2023-09-30T14:53:22;30.80;40.90
39045;DHT22;52192;52.002;5.956;2023-09-30T14:55:48;30.60;40.70
39045;DHT22;52192;52.002;5.956;2023-09-30T14:58:14;30.30;41.00
39045;DHT22;52192;52.002;5.956;2023-09-30T15:00:40;29.90;41.20
39045;DHT22;52192;52.002;5.956;2023-09-30T15:03:06;29.20;42.50
39045;DHT22;52192;52.002;5.956;2023-09-30T15:05:32;28.40;43.10
39045;DHT22;52192;52.002;5.956;2023-09-30T15:07:59;27.70;44.60
39045;DHT22;52192;52.002;5.956;2023-09-30T15:10:27;27.20;46.00
39045;DHT22;52192;52.002;5.956;2023-09-30T15:12:53;26.90;47.40
39045;DHT22;52192;52.002;5.956;2023-09-30T15:15:19;26.80;47.80
39045;DHT22;52192;52.002;5.956;2023-09-30T15:17:44;26.70;47.80
39045;DHT22;52192;52.002;5.956;2023-09-30T15:20:11;26.40;47.90
39045;DHT22;52192;52.002;5.956;2023-09-30T15:22:36;26.10;48.60
39045;DHT22;52192;52.002;5.956;2023-09-30T15:25:02;25.60;48.50
39045;DHT22;52192;52.002;5.956;2023-09-30T15:27:30;25.20;49.50
39045;DHT22;52192;52.002;5.956;2023-09-30T15:29:59;24.80;50.10
39045;DHT22;52192;52.002;5.956;2023-09-30T15:32:25;24.60;50.70
39045;DHT22;52192;52.002;5.956;2023-09-30T15:34:51;24.50;50.90
39045;DHT22;52192;52.002;5.956;2023-09-30T15:37:17;24.50;50.90
39045;DHT22;52192;52.002;5.956;2023-09-30T15:39:42;24.40;51.00
39045;DHT22;52192;52.002;5.956;2023-09-30T15:42:09;24.20;51.10
39045;DHT22;52192;52.002;5.956;2023-09-30T15:44:37;24.10;51.80
39045;DHT22;52192;52.002;5.956;2023-09-30T15:47:05;24.10;52.40
39045;DHT22;52192;52.002;5.956;2023-09-30T15:49:31;23.90;52.60
39045;DHT22;52192;52.002;5.956;2023-09-30T15:51:57;23.70;52.50
39045;DHT22;52192;52.002;5.956;2023-09-30T15:54:23;23.60;52.90